Merritt, North Carolina
Current Conditions -  °F | °C
As of 6:54 PM on Sunday 25 Jan 2015 (Local Time) from KNKT Reporting Station
Clear Clear  
Wind Chill: 36°   Ceiling: Unl
Heat Index: 41°   Visibility: 10mi
Dew Point: 35°   Wind: 7mph
Humidity: 79%   Direction: 150°SSE
Pressure: 29.89"   Gusts: NA
Location:  35.1°N, 76.71°W
Report Text: KNKT 252354Z 15006KT 10SM CLR 05/02 A2989 RMK AO2 SLP119 T00500017 10128 20050 58004 $
Loading
Personal Weather Stations






























Interactive Weather Map New forecast layout! Learn more

10-Day Weather Forecast

Advertisements
Track Severe Weather on mobile